createdAt,value
2023-04-07T00:01:39.131Z,100.00
2023-04-07T00:04:05.759Z,100.00
2023-04-07T00:06:32.845Z,100.00
2023-04-07T00:08:59.383Z,100.00
2023-04-07T00:11:26.014Z,100.00
2023-04-07T00:13:52.719Z,100.00
2023-04-07T00:16:19.521Z,100.00
2023-04-07T00:18:46.222Z,100.00
2023-04-07T00:21:12.708Z,100.00
2023-04-07T00:23:40.355Z,100.00
2023-04-07T00:26:06.740Z,100.00
2023-04-07T00:28:33.130Z,100.00
2023-04-07T00:30:59.687Z,100.00
2023-04-07T00:33:26.167Z,100.00
2023-04-07T00:35:54.304Z,100.00
2023-04-07T00:38:20.895Z,100.00
2023-04-07T00:40:47.362Z,100.00
2023-04-07T00:43:13.874Z,100.00
2023-04-07T00:45:40.372Z,100.00
2023-04-07T00:48:07.300Z,100.00
2023-04-07T00:50:33.754Z,100.00
2023-04-07T00:53:00.692Z,100.00
2023-04-07T00:55:27.121Z,100.00
2023-04-07T00:57:53.513Z,100.00
2023-04-07T01:00:20.125Z,100.00
2023-04-07T01:02:55.705Z,100.00
2023-04-07T01:05:51.327Z,100.00
2023-04-07T01:08:24.085Z,100.00
2023-04-07T01:10:53.356Z,100.00
2023-04-07T01:13:30.760Z,100.00
2023-04-07T01:16:00.864Z,100.00
2023-04-07T01:18:33.617Z,100.00
2023-04-07T01:21:07.699Z,100.00
2023-04-07T01:24:12.887Z,100.00
2023-04-07T01:26:40.453Z,100.00
2023-04-07T01:29:37.394Z,100.00
2023-04-07T01:32:08.065Z,100.00
2023-04-07T01:34:37.153Z,100.00
2023-04-07T01:37:04.699Z,100.00
2023-04-07T01:39:32.611Z,100.00
2023-04-07T01:42:02.246Z,100.00
2023-04-07T01:44:30.205Z,100.00
2023-04-07T01:46:57.106Z,100.00
2023-04-07T01:49:25.214Z,100.00
2023-04-07T01:51:52.408Z,100.00
2023-04-07T01:54:19.382Z,100.00
2023-04-07T01:56:45.990Z,100.00
2023-04-07T01:59:12.529Z,100.00
2023-04-07T02:01:39.249Z,100.00
2023-04-07T02:04:19.425Z,100.00
2023-04-07T02:06:53.118Z,100.00
2023-04-07T02:09:22.620Z,100.00
2023-04-07T02:11:51.096Z,100.00
2023-04-07T02:14:20.322Z,100.00
2023-04-07T02:16:49.044Z,100.00
2023-04-07T02:19:15.870Z,100.00
2023-04-07T02:21:43.582Z,100.00
2023-04-07T02:24:11.856Z,100.00
2023-04-07T02:26:38.590Z,100.00
2023-04-07T02:29:05.587Z,100.00
2023-04-07T02:31:32.360Z,100.00
2023-04-07T02:33:58.808Z,100.00
2023-04-07T02:36:26.312Z,100.00
2023-04-07T02:38:52.783Z,100.00
2023-04-07T02:41:19.254Z,100.00
2023-04-07T02:43:46.064Z,100.00
2023-04-07T02:46:13.734Z,100.00
2023-04-07T02:48:41.195Z,100.00
2023-04-07T02:51:07.609Z,100.00
2023-04-07T02:53:34.058Z,100.00
2023-04-07T02:56:00.677Z,100.00
2023-04-07T02:58:27.123Z,100.00
2023-04-07T03:00:53.697Z,100.00
2023-04-07T03:03:20.481Z,100.00
2023-04-07T03:05:47.025Z,100.00
2023-04-07T03:08:13.522Z,100.00
2023-04-07T03:10:39.985Z,100.00
2023-04-07T03:13:08.309Z,100.00
2023-04-07T03:15:34.850Z,100.00
2023-04-07T03:18:01.316Z,100.00
2023-04-07T03:20:27.840Z,100.00
2023-04-07T03:22:54.253Z,100.00
2023-04-07T03:25:21.282Z,100.00
2023-04-07T03:27:47.683Z,100.00
2023-04-07T03:30:14.211Z,100.00
2023-04-07T03:32:40.710Z,100.00
2023-04-07T03:35:07.713Z,100.00
2023-04-07T03:37:34.174Z,100.00
2023-04-07T03:40:00.615Z,100.00
2023-04-07T03:42:27.016Z,100.00
2023-04-07T03:44:53.409Z,100.00
2023-04-07T03:47:19.836Z,100.00
2023-04-07T03:49:46.316Z,100.00
2023-04-07T03:52:12.775Z,100.00
2023-04-07T03:54:39.214Z,100.00
2023-04-07T03:57:05.818Z,100.00
2023-04-07T03:59:32.357Z,100.00
2023-04-07T04:01:58.902Z,100.00
2023-04-07T04:04:25.542Z,100.00
2023-04-07T04:06:52.324Z,100.00
2023-04-07T04:09:18.902Z,100.00
2023-04-07T04:11:45.377Z,100.00
2023-04-07T04:14:12.387Z,100.00
2023-04-07T04:16:38.860Z,100.00
2023-04-07T04:19:05.373Z,100.00
2023-04-07T04:21:31.896Z,100.00
2023-04-07T04:23:58.361Z,100.00
2023-04-07T04:26:26.111Z,100.00
2023-04-07T04:28:53.020Z,100.00
2023-04-07T04:31:19.622Z,100.00
2023-04-07T04:33:46.494Z,100.00
2023-04-07T04:36:13.316Z,100.00
2023-04-07T04:38:39.823Z,100.00
2023-04-07T04:41:06.219Z,100.00
2023-04-07T04:43:32.618Z,100.00
2023-04-07T04:45:59.071Z,100.00
2023-04-07T04:48:25.473Z,100.00
2023-04-07T04:50:51.898Z,100.00
2023-04-07T04:53:18.257Z,100.00
2023-04-07T04:55:47.201Z,100.00
2023-04-07T04:58:13.673Z,100.00
2023-04-07T05:00:40.189Z,100.00
2023-04-07T05:03:06.981Z,100.00
2023-04-07T05:05:33.540Z,100.00
2023-04-07T05:07:59.984Z,100.00
2023-04-07T05:10:26.409Z,100.00
2023-04-07T05:12:52.887Z,100.00
2023-04-07T05:15:19.510Z,100.00
2023-04-07T05:17:50.403Z,100.00
2023-04-07T05:20:17.384Z,100.00
2023-04-07T05:22:43.798Z,100.00
2023-04-07T05:25:10.801Z,100.00
2023-04-07T05:27:37.206Z,100.00
2023-04-07T05:30:03.931Z,100.00
2023-04-07T05:32:30.417Z,100.00
2023-04-07T05:34:56.951Z,100.00
2023-04-07T05:37:23.442Z,100.00
2023-04-07T05:39:49.934Z,100.00
2023-04-07T05:42:16.437Z,100.00
2023-04-07T05:44:42.865Z,100.00
2023-04-07T05:47:09.432Z,100.00
2023-04-07T05:49:35.893Z,100.00
2023-04-07T05:52:03.539Z,100.00
2023-04-07T05:54:30.151Z,100.00
2023-04-07T05:56:56.562Z,100.00
2023-04-07T05:59:23.030Z,100.00
2023-04-07T06:01:49.721Z,100.00
2023-04-07T06:04:16.248Z,100.00
2023-04-07T06:06:42.658Z,100.00
2023-04-07T06:09:09.048Z,100.00
2023-04-07T06:11:35.492Z,100.00
2023-04-07T06:14:01.960Z,100.00
2023-04-07T06:16:28.418Z,100.00
2023-04-07T06:18:54.943Z,100.00
2023-04-07T06:21:21.416Z,100.00
2023-04-07T06:23:48.466Z,100.00
2023-04-07T06:26:15.504Z,100.00
2023-04-07T06:28:42.166Z,100.00
2023-04-07T06:31:09.014Z,100.00
2023-04-07T06:33:35.645Z,100.00
2023-04-07T06:36:02.250Z,100.00
2023-04-07T06:38:28.766Z,100.00
2023-04-07T06:40:55.258Z,100.00
2023-04-07T06:43:21.755Z,100.00
2023-04-07T06:45:48.252Z,100.00
2023-04-07T06:48:14.666Z,100.00
2023-04-07T06:50:41.159Z,100.00
2023-04-07T06:53:07.587Z,100.00
2023-04-07T06:55:34.018Z,100.00
2023-04-07T06:58:00.474Z,100.00
2023-04-07T07:00:30.089Z,100.00
2023-04-07T07:02:57.551Z,100.00
2023-04-07T07:05:24.288Z,100.00
2023-04-07T07:07:51.668Z,100.00
2023-04-07T07:10:20.336Z,100.00
2023-04-07T07:12:46.794Z,100.00
2023-04-07T07:15:13.208Z,100.00
2023-04-07T07:17:39.660Z,100.00
2023-04-07T07:20:06.637Z,100.00
2023-04-07T07:22:33.077Z,100.00
2023-04-07T07:24:59.513Z,100.00
2023-04-07T07:27:26.168Z,100.00
2023-04-07T07:29:52.684Z,100.00
2023-04-07T07:32:19.247Z,100.00
2023-04-07T07:34:45.704Z,100.00
2023-04-07T07:37:12.467Z,100.00
2023-04-07T07:39:39.208Z,100.00
2023-04-07T07:42:05.674Z,100.00
2023-04-07T07:44:32.634Z,100.00
2023-04-07T07:46:59.515Z,100.00
2023-04-07T07:49:28.060Z,100.00
2023-04-07T07:51:54.491Z,100.00
2023-04-07T07:54:20.936Z,100.00
2023-04-07T07:56:47.326Z,99.96
2023-04-07T07:59:13.912Z,99.58
2023-04-07T08:01:41.248Z,100.00
2023-04-07T08:04:07.965Z,99.44
2023-04-07T08:06:34.671Z,99.06
2023-04-07T08:09:01.075Z,98.47
2023-04-07T08:11:27.523Z,98.73
2023-04-07T08:13:54.316Z,97.92
2023-04-07T08:16:22.077Z,98.30
2023-04-07T08:18:48.909Z,98.32
2023-04-07T08:21:15.996Z,98.31
2023-04-07T08:23:42.503Z,97.75
2023-04-07T08:26:09.030Z,97.94
2023-04-07T08:28:35.738Z,97.61
2023-04-07T08:31:02.269Z,98.08
2023-04-07T08:33:28.710Z,97.49
2023-04-07T08:35:55.087Z,97.00
2023-04-07T08:38:22.211Z,97.47
2023-04-07T08:40:58.354Z,97.27
2023-04-07T08:43:26.782Z,97.02
2023-04-07T08:45:56.670Z,97.23
2023-04-07T08:48:27.226Z,96.82
2023-04-07T08:50:54.637Z,97.45
2023-04-07T08:53:28.163Z,97.03
2023-04-07T08:55:56.335Z,96.73
2023-04-07T08:58:23.352Z,96.62
2023-04-07T09:00:50.699Z,97.38
2023-04-07T09:03:18.271Z,96.54
2023-04-07T09:05:48.641Z,96.99
2023-04-07T09:08:15.195Z,97.50
2023-04-07T09:10:41.818Z,97.84
2023-04-07T09:13:08.320Z,97.79
2023-04-07T09:15:38.009Z,97.53
2023-04-07T09:18:05.557Z,98.09
2023-04-07T09:21:02.344Z,97.39
2023-04-07T09:23:33.374Z,96.67
2023-04-07T09:26:18.268Z,96.17
2023-04-07T09:28:46.634Z,97.22
2023-04-07T09:31:13.126Z,96.60
2023-04-07T09:33:39.789Z,96.97
2023-04-07T09:36:07.309Z,96.42
2023-04-07T09:38:35.802Z,96.75
2023-04-07T09:41:31.399Z,97.72
2023-04-07T09:43:58.452Z,97.38
2023-04-07T09:46:26.194Z,97.50
2023-04-07T09:49:05.031Z,98.39
2023-04-07T09:51:31.482Z,97.40
2023-04-07T09:53:58.201Z,97.25
2023-04-07T09:56:25.330Z,97.20
2023-04-07T09:58:51.899Z,97.00
2023-04-07T10:01:19.213Z,97.00
2023-04-07T10:03:47.751Z,96.76
2023-04-07T10:06:14.696Z,96.16
2023-04-07T10:08:43.021Z,96.05
2023-04-07T10:11:10.277Z,95.34
2023-04-07T10:13:39.420Z,94.87
2023-04-07T10:16:07.572Z,94.58
2023-04-07T10:18:36.140Z,94.90
2023-04-07T10:21:04.716Z,94.69
2023-04-07T10:23:47.836Z,95.33
2023-04-07T10:26:19.765Z,94.59
2023-04-07T10:28:52.016Z,94.77
2023-04-07T10:31:19.088Z,95.20
2023-04-07T10:33:56.442Z,94.84
2023-04-07T10:36:23.397Z,94.90
2023-04-07T10:39:08.258Z,95.06
2023-04-07T10:41:38.665Z,95.40
2023-04-07T10:44:06.809Z,95.05
2023-04-07T10:46:45.316Z,93.78
2023-04-07T10:49:13.350Z,93.22
2023-04-07T10:51:40.458Z,92.04
2023-04-07T10:54:21.123Z,90.98
2023-04-07T10:57:02.751Z,90.64
2023-04-07T10:59:33.265Z,90.16
2023-04-07T11:02:15.222Z,89.64
2023-04-07T11:04:44.105Z,89.68
2023-04-07T11:07:12.005Z,89.73
2023-04-07T11:09:38.414Z,88.72
2023-04-07T11:12:04.930Z,88.58
2023-04-07T11:14:32.942Z,87.73
2023-04-07T11:17:01.632Z,86.99
2023-04-07T11:19:28.395Z,87.14
2023-04-07T11:22:26.334Z,87.63
2023-04-07T11:24:56.088Z,88.64
2023-04-07T11:27:22.690Z,89.49
2023-04-07T11:29:49.250Z,89.51
2023-04-07T11:32:16.466Z,90.02
2023-04-07T11:34:43.129Z,90.09
2023-04-07T11:37:28.569Z,90.25
2023-04-07T11:39:56.190Z,90.26
2023-04-07T11:42:39.849Z,90.49
2023-04-07T11:45:16.515Z,90.27
2023-04-07T11:47:43.112Z,90.70
2023-04-07T11:50:09.869Z,90.44
2023-04-07T11:52:47.524Z,90.40
2023-04-07T11:55:20.144Z,90.26
2023-04-07T11:57:48.159Z,90.04
2023-04-07T12:00:15.687Z,90.11
2023-04-07T12:02:42.782Z,89.43
2023-04-07T12:05:10.647Z,89.84
2023-04-07T12:07:38.431Z,89.51
2023-04-07T12:10:28.254Z,89.26
2023-04-07T12:12:55.058Z,88.81
2023-04-07T12:15:22.504Z,88.31
2023-04-07T12:17:49.424Z,88.29
2023-04-07T12:20:16.513Z,87.72
2023-04-07T12:22:42.960Z,87.60
2023-04-07T12:25:09.728Z,87.69
2023-04-07T12:27:42.737Z,87.97
2023-04-07T12:30:09.902Z,87.25
2023-04-07T12:32:37.726Z,87.15
2023-04-07T12:35:05.348Z,86.67
2023-04-07T12:37:32.843Z,86.32
2023-04-07T12:39:59.932Z,86.24
2023-04-07T12:42:27.193Z,86.23
2023-04-07T12:44:53.647Z,85.57
2023-04-07T12:47:20.212Z,85.72
2023-04-07T12:49:47.880Z,84.85
2023-04-07T12:52:16.146Z,84.72
2023-04-07T12:54:44.180Z,85.05
2023-04-07T12:57:11.039Z,85.99
2023-04-07T12:59:37.493Z,86.13
2023-04-07T13:02:04.155Z,85.54
2023-04-07T13:04:31.343Z,85.06
2023-04-07T13:06:57.900Z,85.91
2023-04-07T13:09:25.091Z,84.98
2023-04-07T13:11:51.548Z,85.86
2023-04-07T13:14:17.957Z,84.98
2023-04-07T13:16:44.772Z,84.52
2023-04-07T13:19:11.253Z,85.96
2023-04-07T13:21:45.282Z,86.07
2023-04-07T13:24:12.932Z,86.52
2023-04-07T13:26:39.333Z,84.82
2023-04-07T13:29:05.822Z,83.29
2023-04-07T13:31:32.649Z,84.06
2023-04-07T13:33:59.032Z,83.83
2023-04-07T13:36:27.290Z,82.29
2023-04-07T13:38:53.760Z,83.17
2023-04-07T13:41:21.498Z,82.14
2023-04-07T13:43:48.119Z,82.27
2023-04-07T13:46:27.213Z,81.60
2023-04-07T13:48:55.376Z,82.13
2023-04-07T13:51:22.030Z,80.67
2023-04-07T13:53:48.782Z,81.67
2023-04-07T13:56:15.446Z,81.91
2023-04-07T13:58:41.860Z,82.01
2023-04-07T14:01:08.534Z,82.71
2023-04-07T14:03:35.411Z,82.29
2023-04-07T14:06:02.548Z,82.21
2023-04-07T14:08:29.092Z,82.24
2023-04-07T14:10:55.691Z,82.59
2023-04-07T14:13:22.160Z,83.35
2023-04-07T14:15:49.673Z,82.91
2023-04-07T14:18:17.327Z,83.02
2023-04-07T14:20:43.753Z,82.60
2023-04-07T14:23:10.784Z,82.72
2023-04-07T14:25:37.233Z,82.98
2023-04-07T14:28:03.754Z,83.97
2023-04-07T14:30:31.098Z,84.28
2023-04-07T14:32:57.602Z,84.63
2023-04-07T14:35:24.338Z,84.92
2023-04-07T14:37:52.394Z,83.58
2023-04-07T14:40:21.294Z,84.55
2023-04-07T14:42:48.670Z,85.32
2023-04-07T14:45:15.468Z,85.48
2023-04-07T14:47:41.912Z,85.22
2023-04-07T14:50:08.563Z,85.46
2023-04-07T14:52:34.961Z,85.99
2023-04-07T14:55:01.728Z,85.88
2023-04-07T14:57:28.201Z,86.83
2023-04-07T14:59:54.692Z,85.77
2023-04-07T15:02:22.038Z,85.29
2023-04-07T15:04:48.556Z,84.71
2023-04-07T15:07:15.393Z,84.68
2023-04-07T15:09:41.885Z,83.49
2023-04-07T15:12:08.309Z,84.27
2023-04-07T15:14:34.693Z,84.33
2023-04-07T15:17:01.099Z,83.81
2023-04-07T15:19:27.536Z,83.43
2023-04-07T15:21:53.962Z,83.70
2023-04-07T15:24:22.168Z,83.80
2023-04-07T15:26:49.243Z,83.50
2023-04-07T15:29:15.765Z,84.18
2023-04-07T15:31:42.242Z,84.18
2023-04-07T15:34:08.722Z,83.41
2023-04-07T15:36:35.216Z,84.04
2023-04-07T15:39:04.364Z,83.06
2023-04-07T15:41:31.149Z,83.34
2023-04-07T15:43:59.516Z,82.65
2023-04-07T15:46:26.425Z,83.15
2023-04-07T15:48:53.087Z,83.37
2023-04-07T15:51:19.621Z,83.14
2023-04-07T15:53:46.172Z,83.50
2023-04-07T15:56:13.810Z,83.27
2023-04-07T15:58:40.460Z,82.69
2023-04-07T16:01:07.921Z,82.75
2023-04-07T16:03:34.472Z,82.46
2023-04-07T16:06:00.984Z,82.43
2023-04-07T16:08:27.389Z,82.68
2023-04-07T16:10:53.806Z,82.85
2023-04-07T16:13:20.332Z,82.66
2023-04-07T16:15:46.763Z,82.05
2023-04-07T16:18:13.198Z,81.67
2023-04-07T16:20:39.749Z,82.22
2023-04-07T16:23:06.241Z,82.16
2023-04-07T16:25:32.672Z,81.22
2023-04-07T16:27:59.140Z,82.07
2023-04-07T16:30:25.622Z,81.53
2023-04-07T16:32:52.314Z,81.48
2023-04-07T16:35:19.019Z,81.71
2023-04-07T16:37:49.980Z,81.93
2023-04-07T16:40:16.507Z,82.05
2023-04-07T16:42:42.920Z,82.76
2023-04-07T16:45:09.755Z,82.85
2023-04-07T16:47:37.633Z,83.38
2023-04-07T16:50:04.854Z,83.92
2023-04-07T16:52:31.836Z,84.18
2023-04-07T16:54:59.404Z,83.76
2023-04-07T16:57:26.020Z,84.32
2023-04-07T16:59:52.706Z,84.42
2023-04-07T17:02:19.381Z,84.49
2023-04-07T17:04:46.053Z,84.68
2023-04-07T17:07:12.460Z,84.60
2023-04-07T17:09:39.565Z,84.62
2023-04-07T17:12:06.350Z,84.95
2023-04-07T17:14:33.353Z,85.50
2023-04-07T17:16:59.855Z,85.70
2023-04-07T17:19:26.412Z,85.81
2023-04-07T17:21:52.833Z,85.63
2023-04-07T17:24:19.281Z,85.72
2023-04-07T17:26:49.241Z,85.51
2023-04-07T17:29:16.761Z,85.40
2023-04-07T17:31:43.508Z,85.67
2023-04-07T17:34:11.178Z,85.42
2023-04-07T17:36:37.997Z,86.01
2023-04-07T17:39:04.951Z,85.49
2023-04-07T17:41:34.417Z,85.58
2023-04-07T17:44:01.396Z,86.40
2023-04-07T17:46:28.148Z,85.65
2023-04-07T17:48:55.051Z,85.87
2023-04-07T17:51:21.496Z,85.86
2023-04-07T17:53:48.609Z,86.11
2023-04-07T17:56:15.261Z,86.35
2023-04-07T17:58:41.805Z,86.23
2023-04-07T18:01:11.673Z,85.69
2023-04-07T18:03:38.280Z,85.58
2023-04-07T18:06:05.182Z,85.63
2023-04-07T18:08:31.692Z,85.83
2023-04-07T18:10:58.101Z,85.78
2023-04-07T18:13:24.574Z,85.76
2023-04-07T18:15:51.143Z,85.99
2023-04-07T18:18:19.123Z,86.18
2023-04-07T18:20:45.940Z,86.52
2023-04-07T18:23:12.479Z,86.23
2023-04-07T18:25:38.897Z,86.55
2023-04-07T18:28:05.400Z,86.29
2023-04-07T18:30:31.875Z,86.31
2023-04-07T18:32:58.336Z,86.45
2023-04-07T18:35:25.582Z,86.45
2023-04-07T18:37:52.132Z,86.43
2023-04-07T18:40:18.627Z,86.46
2023-04-07T18:42:45.243Z,86.18
2023-04-07T18:45:11.662Z,86.75
2023-04-07T18:47:39.070Z,86.69
2023-04-07T18:50:06.088Z,86.22
2023-04-07T18:52:32.581Z,87.09
2023-04-07T18:54:59.051Z,86.84
2023-04-07T18:57:25.513Z,87.15
2023-04-07T18:59:52.876Z,86.74
2023-04-07T19:02:19.476Z,86.78
2023-04-07T19:04:46.112Z,86.87
2023-04-07T19:07:12.563Z,86.85
2023-04-07T19:09:39.824Z,87.02
2023-04-07T19:12:06.540Z,87.26
2023-04-07T19:14:32.990Z,86.83
2023-04-07T19:16:59.534Z,87.34
2023-04-07T19:19:26.454Z,87.04
2023-04-07T19:21:52.890Z,87.15
2023-04-07T19:24:19.401Z,87.34
2023-04-07T19:26:45.944Z,87.61
2023-04-07T19:29:12.480Z,87.09
2023-04-07T19:31:39.564Z,86.89
2023-04-07T19:34:06.228Z,87.52
2023-04-07T19:36:32.842Z,87.27
2023-04-07T19:38:59.282Z,87.67
2023-04-07T19:41:25.913Z,87.30
2023-04-07T19:43:53.213Z,86.91
2023-04-07T19:46:19.822Z,86.94
2023-04-07T19:48:46.922Z,87.47
2023-04-07T19:51:13.418Z,87.36
2023-04-07T19:53:40.001Z,87.79
2023-04-07T19:56:06.510Z,87.26
2023-04-07T19:58:34.268Z,87.20
2023-04-07T20:01:01.043Z,87.06
2023-04-07T20:03:27.643Z,87.15
2023-04-07T20:05:54.556Z,87.36
2023-04-07T20:08:21.354Z,87.23
2023-04-07T20:10:51.336Z,87.69
2023-04-07T20:13:17.738Z,87.80
2023-04-07T20:15:44.418Z,87.77
2023-04-07T20:18:11.167Z,87.62
2023-04-07T20:20:37.747Z,87.71
2023-04-07T20:23:04.192Z,87.90
2023-04-07T20:25:30.623Z,87.96
2023-04-07T20:27:57.071Z,87.76
2023-04-07T20:30:23.468Z,88.79
2023-04-07T20:32:49.970Z,88.30
2023-04-07T20:35:16.650Z,87.89
2023-04-07T20:37:44.433Z,88.70
2023-04-07T20:40:11.709Z,88.03
2023-04-07T20:42:38.273Z,88.45
2023-04-07T20:45:06.483Z,88.35
2023-04-07T20:47:35.889Z,89.57
2023-04-07T20:50:02.749Z,88.79
2023-04-07T20:52:29.250Z,88.91
2023-04-07T20:54:56.501Z,89.20
2023-04-07T20:57:23.060Z,89.57
2023-04-07T20:59:49.685Z,88.97
2023-04-07T21:02:16.431Z,89.73
2023-04-07T21:04:43.770Z,89.81
2023-04-07T21:07:11.156Z,90.75
2023-04-07T21:09:37.535Z,89.53
2023-04-07T21:12:04.347Z,89.51
2023-04-07T21:14:31.997Z,89.44
2023-04-07T21:16:59.115Z,90.47
2023-04-07T21:19:26.064Z,89.89
2023-04-07T21:21:52.523Z,90.04
2023-04-07T21:24:19.063Z,89.65
2023-04-07T21:26:45.578Z,89.77
2023-04-07T21:29:12.172Z,89.71
2023-04-07T21:31:39.175Z,89.86
2023-04-07T21:34:05.843Z,90.44
2023-04-07T21:36:32.813Z,90.15
2023-04-07T21:38:59.248Z,90.20
2023-04-07T21:41:25.953Z,90.45
2023-04-07T21:43:52.416Z,90.71
2023-04-07T21:46:19.069Z,90.50
2023-04-07T21:48:45.735Z,89.51
2023-04-07T21:51:12.222Z,90.02
2023-04-07T21:53:38.738Z,89.88
2023-04-07T21:56:05.738Z,89.52
2023-04-07T21:58:32.192Z,89.55
2023-04-07T22:00:58.683Z,90.33
2023-04-07T22:03:25.312Z,89.64
2023-04-07T22:05:51.930Z,89.50
2023-04-07T22:08:18.416Z,89.52
2023-04-07T22:10:44.898Z,89.38
2023-04-07T22:13:11.324Z,89.56
2023-04-07T22:15:37.748Z,89.46
2023-04-07T22:18:04.750Z,89.40
2023-04-07T22:20:31.331Z,89.46
2023-04-07T22:22:58.007Z,89.49
2023-04-07T22:25:25.053Z,89.65
2023-04-07T22:27:54.396Z,89.67
2023-04-07T22:30:20.847Z,89.55
2023-04-07T22:32:48.174Z,89.99
2023-04-07T22:35:14.840Z,90.01
2023-04-07T22:37:41.336Z,90.02
2023-04-07T22:40:08.750Z,90.54
2023-04-07T22:42:35.456Z,90.12
2023-04-07T22:45:01.938Z,89.78
2023-04-07T22:47:28.386Z,90.29
2023-04-07T22:49:54.917Z,90.55
2023-04-07T22:52:21.353Z,90.91
2023-04-07T22:54:47.763Z,90.54
2023-04-07T22:57:14.240Z,90.25
2023-04-07T22:59:41.015Z,91.18
2023-04-07T23:02:07.539Z,90.20
2023-04-07T23:04:34.104Z,90.42
2023-04-07T23:07:00.518Z,90.12
2023-04-07T23:09:27.937Z,91.07
2023-04-07T23:11:54.296Z,90.93
2023-04-07T23:14:20.834Z,91.20
2023-04-07T23:16:47.287Z,90.57
2023-04-07T23:19:15.820Z,90.80
2023-04-07T23:21:42.983Z,90.69
2023-04-07T23:24:09.744Z,91.71
2023-04-07T23:26:36.157Z,91.51
2023-04-07T23:29:03.613Z,91.07
2023-04-07T23:31:30.249Z,90.97
2023-04-07T23:33:59.519Z,91.80
2023-04-07T23:36:27.088Z,91.37
2023-04-07T23:38:55.205Z,91.37
2023-04-07T23:41:22.397Z,91.78
2023-04-07T23:43:49.065Z,91.99
2023-04-07T23:46:15.627Z,92.07
2023-04-07T23:48:42.475Z,92.35
2023-04-07T23:51:08.865Z,91.94
2023-04-07T23:53:35.351Z,92.55
2023-04-07T23:56:01.940Z,92.00
2023-04-07T23:58:28.375Z,93.10
